Time;durP1;ratioP1;P1;durP2;ratioP2;P2;SDS_P1;SDS_P2;PMS_P1;PMS_P2;Temp;Humidity;BMP_temperature;BMP_pressure;BME280_temperature;BME280_humidity;BME280_pressure;Samples;Min_cycle;Max_cycle;Signal;HPM_P1;HPM_P2
2024/01/01 00:00:13;;;;;;;18.15;8.70;;;3.70;99.90;;;;;;5042542;28;20084;-77
2024/01/01 00:02:39;;;;;;;19.20;9.35;;;3.60;99.90;;;;;;5031337;28;20584;-76
2024/01/01 00:05:06;;;;;;;21.48;8.60;;;3.60;99.90;;;;;;5044407;28;20053;-76
2024/01/01 00:07:32;;;;;;;17.52;8.85;;;3.60;99.90;;;;;;5045952;28;20048;-75
2024/01/01 00:09:57;;;;;;;22.27;9.33;;;3.50;99.90;;;;;;5049079;28;20032;-76
2024/01/01 00:12:23;;;;;;;17.90;9.53;;;3.60;99.90;;;;;;5050901;28;20580;-76
2024/01/01 00:14:48;;;;;;;15.40;8.23;;;3.60;99.90;;;;;;5042291;28;20510;-77
2024/01/01 00:17:14;;;;;;;14.00;8.27;;;3.60;99.90;;;;;;5040640;28;20029;-77
2024/01/01 00:19:40;;;;;;;21.67;10.00;;;3.50;99.90;;;;;;5045244;28;20029;-77
2024/01/01 00:22:06;;;;;;;15.43;8.55;;;3.60;99.90;;;;;;5046318;28;20264;-76
2024/01/01 00:24:32;;;;;;;14.38;8.63;;;3.60;99.90;;;;;;5037735;28;20490;-77
2024/01/01 00:26:58;;;;;;;20.67;9.82;;;3.60;99.90;;;;;;5042082;28;20029;-78
2024/01/01 00:29:26;;;;;;;21.80;10.80;;;3.60;99.90;;;;;;5045199;28;20038;-77
2024/01/01 00:31:52;;;;;;;18.95;10.57;;;3.60;99.90;;;;;;5043238;28;20100;-76
2024/01/01 00:34:21;;;;;;;18.67;9.98;;;3.50;99.90;;;;;;5044870;28;20111;-75
2024/01/01 00:36:48;;;;;;;19.05;10.32;;;3.40;99.90;;;;;;5049516;28;20079;-77
2024/01/01 00:39:14;;;;;;;16.77;9.50;;;3.30;99.90;;;;;;5031079;28;20028;-77
2024/01/01 00:41:40;;;;;;;17.73;10.30;;;3.30;99.90;;;;;;5032696;28;20103;-78
2024/01/01 00:44:05;;;;;;;16.77;10.07;;;3.30;99.90;;;;;;5050531;28;20030;-78
2024/01/01 00:46:31;;;;;;;22.77;10.17;;;3.30;99.90;;;;;;5045978;28;20379;-76
2024/01/01 00:48:57;;;;;;;16.73;8.93;;;3.50;99.90;;;;;;5048284;28;20345;-77
2024/01/01 00:51:23;;;;;;;19.23;9.55;;;3.60;99.90;;;;;;5044189;28;20558;-77
2024/01/01 00:53:52;;;;;;;20.03;10.03;;;3.60;99.90;;;;;;5038301;28;20113;-77
2024/01/01 00:56:18;;;;;;;18.05;9.55;;;3.50;99.90;;;;;;5044797;28;20313;-76
2024/01/01 00:58:43;;;;;;;20.67;9.50;;;3.40;99.90;;;;;;5034082;28;20033;-75
2024/01/01 01:01:09;;;;;;;24.37;9.77;;;3.40;99.90;;;;;;5048478;28;20047;-78
2024/01/01 01:03:35;;;;;;;16.93;9.53;;;3.40;99.90;;;;;;5046041;28;20416;-77
2024/01/01 01:06:01;;;;;;;;;;;3.50;99.90;;;;;;5045587;28;20398;-78
2024/01/01 01:08:27;;;;;;;19.15;9.20;;;3.50;99.90;;;;;;5034643;28;19983;-77
2024/01/01 01:10:53;;;;;;;19.50;9.93;;;3.60;99.90;;;;;;5044624;28;20490;-77
2024/01/01 01:13:19;;;;;;;17.90;10.10;;;3.60;99.90;;;;;;5042450;28;20033;-76
2024/01/01 01:15:44;;;;;;;21.55;9.48;;;3.60;99.90;;;;;;5023254;28;20033;-77
2024/01/01 01:18:10;;;;;;;15.43;8.70;;;3.70;99.90;;;;;;5042912;28;20030;-78
2024/01/01 01:20:36;;;;;;;16.63;8.17;;;3.80;99.90;;;;;;5045620;28;20028;-76
2024/01/01 01:23:02;;;;;;;20.35;9.63;;;3.90;99.90;;;;;;5043937;28;20290;-76
2024/01/01 01:25:28;;;;;;;14.30;7.88;;;4.00;99.90;;;;;;5032507;28;20441;-77
2024/01/01 01:27:53;;;;;;;14.93;7.83;;;4.00;99.90;;;;;;5035614;28;20036;-77
2024/01/01 01:30:19;;;;;;;19.07;8.77;;;4.00;99.90;;;;;;5045629;28;20629;-77
2024/01/01 01:32:45;;;;;;;14.00;7.27;;;4.00;99.90;;;;;;5042399;28;20036;-77
2024/01/01 01:35:11;;;;;;;15.57;8.05;;;4.00;99.90;;;;;;5042354;28;20287;-77
2024/01/01 01:37:36;;;;;;;18.48;9.00;;;4.10;99.90;;;;;;5044678;28;20036;-76
2024/01/01 01:40:03;;;;;;;18.67;9.75;;;4.10;99.90;;;;;;5046667;28;20029;-77
2024/01/01 01:42:29;;;;;;;16.52;9.40;;;4.00;99.90;;;;;;5046596;28;20562;-77
2024/01/01 01:44:55;;;;;;;20.83;9.98;;;4.00;99.90;;;;;;5038637;28;20108;-77
2024/01/01 01:47:24;;;;;;;20.00;9.55;;;4.00;99.90;;;;;;5039057;28;20108;-77
2024/01/01 01:49:51;;;;;;;15.68;8.57;;;4.10;99.90;;;;;;5048725;28;20028;-79
2024/01/01 01:52:17;;;;;;;17.25;9.38;;;4.10;99.90;;;;;;5035122;28;20040;-77
2024/01/01 01:54:46;;;;;;;16.02;7.35;;;4.20;99.90;;;;;;5035072;28;20037;-77
2024/01/01 01:57:15;;;;;;;16.17;8.25;;;4.20;99.90;;;;;;5036082;28;20025;-76
2024/01/01 01:59:44;;;;;;;10.73;5.93;;;4.20;99.90;;;;;;5044558;28;20033;-77
2024/01/01 02:02:11;;;;;;;13.65;7.40;;;4.40;99.90;;;;;;5040915;28;20041;-77
2024/01/01 02:04:37;;;;;;;17.98;7.03;;;4.30;99.90;;;;;;5056471;28;20036;-77
2024/01/01 02:07:03;;;;;;;16.50;6.63;;;4.30;99.90;;;;;;5036946;28;20037;-76
2024/01/01 02:09:30;;;;;;;12.20;7.53;;;4.30;99.90;;;;;;5038463;28;20030;-77
2024/01/01 02:11:56;;;;;;;15.43;8.00;;;4.30;99.90;;;;;;5024907;28;20044;-76
2024/01/01 02:14:24;;;;;;;17.73;7.47;;;4.40;99.90;;;;;;5044852;28;20092;-77
2024/01/01 02:16:50;;;;;;;13.95;7.30;;;4.30;99.90;;;;;;5033179;28;20052;-77
2024/01/01 02:19:22;;;;;;;11.88;6.70;;;4.20;99.90;;;;;;5041803;28;20104;-77
2024/01/01 02:21:49;;;;;;;13.20;7.57;;;4.30;99.90;;;;;;5040874;28;20033;-78
2024/01/01 02:24:18;;;;;;;16.33;8.00;;;4.30;99.90;;;;;;5042912;28;20037;-76
2024/01/01 02:26:45;;;;;;;15.82;8.77;;;4.20;99.90;;;;;;5020506;28;20083;-77
2024/01/01 02:29:12;;;;;;;15.57;9.00;;;4.20;99.90;;;;;;5038628;28;20029;-74
2024/01/01 02:31:38;;;;;;;17.67;9.65;;;4.20;99.90;;;;;;5032589;28;20393;-76
2024/01/01 02:34:03;;;;;;;20.92;9.38;;;4.10;99.90;;;;;;5036527;28;20025;-76
2024/01/01 02:36:34;;;;;;;16.35;9.43;;;4.00;99.90;;;;;;5060416;28;20572;-77
2024/01/01 02:38:59;;;;;;;18.67;10.80;;;4.00;99.90;;;;;;5047650;28;20061;-77
2024/01/01 02:41:25;;;;;;;20.80;10.57;;;3.90;99.90;;;;;;5043426;28;20139;-76
2024/01/01 02:43:51;;;;;;;19.97;10.57;;;3.90;99.90;;;;;;5044332;28;20037;-77
2024/01/01 02:46:16;;;;;;;18.95;10.15;;;3.90;99.90;;;;;;5037252;28;20292;-77
2024/01/01 02:48:42;;;;;;;21.23;9.27;;;3.90;99.90;;;;;;5033670;28;20036;-77
2024/01/01 02:51:08;;;;;;;18.80;10.10;;;3.80;99.90;;;;;;5043664;28;20358;-77
2024/01/01 02:53:34;;;;;;;21.85;9.93;;;3.70;99.90;;;;;;5039241;28;20036;-77
2024/01/01 02:56:00;;;;;;;23.20;12.27;;;3.70;99.90;;;;;;5027705;28;20029;-77
2024/01/01 02:58:26;;;;;;;24.48;12.50;;;3.60;99.90;;;;;;5045684;28;20033;-77
2024/01/01 03:00:52;;;;;;;21.70;11.73;;;3.50;99.90;;;;;;5037687;28;20456;-77
2024/01/01 03:03:18;;;;;;;23.40;11.77;;;3.50;99.90;;;;;;5055076;28;20069;-77
2024/01/01 03:05:43;;;;;;;22.92;12.00;;;3.50;99.90;;;;;;5040069;28;20045;-77
2024/01/01 03:08:10;;;;;;;22.15;11.48;;;3.50;99.90;;;;;;5045356;28;20376;-77
2024/01/01 03:10:36;;;;;;;21.33;11.32;;;3.40;99.90;;;;;;5042871;28;20079;-77
2024/01/01 03:13:02;;;;;;;26.10;12.05;;;3.30;99.90;;;;;;5037455;28;20080;-77
2024/01/01 03:15:28;;;;;;;22.13;11.25;;;3.30;99.90;;;;;;5038650;28;20538;-77
2024/01/01 03:17:54;;;;;;;20.50;11.38;;;3.30;99.90;;;;;;5039940;28;20096;-77
2024/01/01 03:20:25;;;;;;;23.33;12.40;;;3.20;99.90;;;;;;5037560;28;20052;-78
2024/01/01 03:22:51;;;;;;;22.10;11.02;;;3.20;99.90;;;;;;5037144;28;20067;-77
2024/01/01 03:25:17;;;;;;;17.75;11.32;;;3.20;99.90;;;;;;5045343;28;20392;-77
2024/01/01 03:27:43;;;;;;;20.52;11.13;;;3.20;99.90;;;;;;5042093;28;20038;-78
2024/01/01 03:30:09;;;;;;;21.33;10.80;;;3.10;99.90;;;;;;5037288;28;20560;-78
2024/01/01 03:32:35;;;;;;;20.45;10.38;;;3.10;99.90;;;;;;5048299;28;20030;-78
2024/01/01 03:35:02;;;;;;;18.38;9.95;;;3.10;99.90;;;;;;5043781;28;20104;-78
2024/01/01 03:37:28;;;;;;;26.85;10.57;;;3.10;99.90;;;;;;5045316;28;20091;-77
2024/01/01 03:39:54;;;;;;;20.70;10.50;;;3.00;99.90;;;;;;5046051;28;20029;-78
2024/01/01 03:42:20;;;;;;;15.68;9.82;;;3.00;99.90;;;;;;5043369;28;20033;-78
2024/01/01 03:44:45;;;;;;;21.30;11.20;;;3.00;99.90;;;;;;5061555;28;20037;-77
2024/01/01 03:47:11;;;;;;;19.30;10.57;;;3.00;99.90;;;;;;5035242;28;20124;-77
2024/01/01 03:49:37;;;;;;;17.87;10.37;;;3.00;99.90;;;;;;5043767;28;20503;-77
2024/01/01 03:52:02;;;;;;;18.75;10.68;;;3.00;99.90;;;;;;5042748;28;20820;-77
2024/01/01 03:54:28;;;;;;;20.57;11.70;;;3.00;99.90;;;;;;5041936;28;20045;-77
2024/01/01 03:56:55;;;;;;;23.25;11.52;;;3.00;99.90;;;;;;5033978;28;20334;-76
2024/01/01 03:59:21;;;;;;;23.83;11.73;;;3.20;99.90;;;;;;5037433;28;20815;-77
2024/01/01 04:01:46;;;;;;;18.17;10.10;;;2.90;99.90;;;;;;5045483;28;20033;-77
2024/01/01 04:04:12;;;;;;;20.05;10.88;;;3.00;99.90;;;;;;5035103;28;20032;-77
2024/01/01 04:06:38;;;;;;;16.95;9.65;;;3.10;99.90;;;;;;5039327;28;20454;-77
2024/01/01 04:09:03;;;;;;;25.38;11.70;;;3.20;99.90;;;;;;5048775;28;20424;-77
2024/01/01 04:11:29;;;;;;;21.55;11.52;;;3.20;99.90;;;;;;5039773;28;20029;-78
2024/01/01 04:13:55;;;;;;;22.55;11.70;;;3.20;99.90;;;;;;5042008;28;20036;-77
2024/01/01 04:16:20;;;;;;;21.37;10.13;;;3.20;99.90;;;;;;5047638;28;20045;-77
2024/01/01 04:18:46;;;;;;;21.67;11.23;;;3.20;99.90;;;;;;5046436;28;20745;-77
2024/01/01 04:21:12;;;;;;;18.80;10.95;;;3.20;99.90;;;;;;5036466;28;20299;-77
2024/01/01 04:23:38;;;;;;;20.25;11.48;;;3.20;99.90;;;;;;5039175;28;20490;-77
2024/01/01 04:26:04;;;;;;;20.67;11.50;;;3.10;99.90;;;;;;5041477;28;20041;-77
2024/01/01 04:28:30;;;;;;;21.67;11.45;;;3.20;99.90;;;;;;5064859;28;20033;-77
2024/01/01 04:30:55;;;;;;;22.98;12.25;;;3.20;99.90;;;;;;5044926;28;20041;-76
2024/01/01 04:33:21;;;;;;;21.63;11.95;;;3.20;99.90;;;;;;5047079;28;20033;-78
2024/01/01 04:35:46;;;;;;;21.90;11.27;;;3.20;99.90;;;;;;5049356;28;20379;-77
2024/01/01 04:38:12;;;;;;;21.30;10.97;;;3.20;99.90;;;;;;5053617;28;20036;-77
2024/01/01 04:40:39;;;;;;;19.65;11.45;;;3.10;99.90;;;;;;5049712;28;20517;-77
2024/01/01 04:43:04;;;;;;;19.98;11.30;;;3.00;99.90;;;;;;5041901;28;20116;-77
2024/01/01 04:45:35;;;;;;;20.90;11.40;;;3.00;99.90;;;;;;5033994;28;20227;-77
2024/01/01 04:48:04;;;;;;;20.38;11.98;;;3.00;99.90;;;;;;5049733;28;20091;-77
2024/01/01 04:50:31;;;;;;;19.70;11.80;;;2.90;99.90;;;;;;5046238;28;20036;-76
2024/01/01 04:52:57;;;;;;;21.85;11.98;;;2.90;99.90;;;;;;5059689;28;20029;-77
2024/01/01 04:55:22;;;;;;;24.40;12.00;;;2.90;99.90;;;;;;5034691;28;20051;-76
2024/01/01 04:57:48;;;;;;;25.10;11.67;;;2.90;99.90;;;;;;5045290;28;20080;-77
2024/01/01 05:00:14;;;;;;;19.40;11.27;;;2.90;99.90;;;;;;5042837;28;20295;-76
2024/01/01 05:02:40;;;;;;;22.17;10.85;;;2.90;99.90;;;;;;5044930;28;20323;-76
2024/01/01 05:05:08;;;;;;;20.97;12.30;;;2.90;99.90;;;;;;5022511;28;20069;-77
2024/01/01 05:07:37;;;;;;;18.67;10.25;;;2.90;99.90;;;;;;5044116;28;20549;-77
2024/01/01 05:10:06;;;;;;;22.77;11.70;;;2.90;99.90;;;;;;5027272;28;20025;-77
2024/01/01 05:12:32;;;;;;;21.95;10.95;;;3.00;99.90;;;;;;5043496;28;20048;-77
2024/01/01 05:14:57;;;;;;;21.73;12.03;;;3.00;99.90;;;;;;5032850;28;20025;-77
2024/01/01 05:17:23;;;;;;;19.20;11.30;;;3.00;99.90;;;;;;5044832;28;20490;-76
2024/01/01 05:19:50;;;;;;;23.35;12.98;;;3.10;99.90;;;;;;5045871;28;20459;-76
2024/01/01 05:22:15;;;;;;;;;;;3.10;99.90;;;;;;5028983;28;20454;-76
2024/01/01 05:24:41;;;;;;;20.80;11.13;;;3.10;99.90;;;;;;5025112;28;19912;-77
2024/01/01 05:27:07;;;;;;;18.15;10.48;;;3.00;99.90;;;;;;5041755;28;20049;-77
2024/01/01 05:29:34;;;;;;;19.23;10.87;;;3.00;99.90;;;;;;5032945;28;20120;-77
2024/01/01 05:31:59;;;;;;;23.77;12.25;;;2.90;99.90;;;;;;5044154;28;20026;-77
2024/01/01 05:34:25;;;;;;;18.63;10.93;;;2.80;99.90;;;;;;5039772;28;20500;-77
2024/01/01 05:36:51;;;;;;;20.97;11.07;;;2.70;99.90;;;;;;5049685;28;20028;-78
2024/01/01 05:39:16;;;;;;;18.70;10.70;;;2.80;99.90;;;;;;5028341;28;20649;-76
2024/01/01 05:41:42;;;;;;;22.77;10.47;;;2.80;99.90;;;;;;5038225;28;20063;-77
2024/01/01 05:44:08;;;;;;;25.30;11.82;;;2.80;99.90;;;;;;5020703;28;20045;-77
2024/01/01 05:46:33;;;;;;;20.17;10.60;;;2.80;99.90;;;;;;5044421;28;20048;-76
2024/01/01 05:48:59;;;;;;;19.92;10.85;;;2.80;99.90;;;;;;5048258;28;20287;-77
2024/01/01 05:51:25;;;;;;;27.47;12.37;;;2.70;99.90;;;;;;5034243;28;20430;-76
2024/01/01 05:53:51;;;;;;;20.27;10.93;;;2.70;99.90;;;;;;5042302;28;20406;-76
2024/01/01 05:56:16;;;;;;;25.17;11.37;;;2.60;99.90;;;;;;5059882;28;20798;-76
2024/01/01 05:58:42;;;;;;;24.47;11.47;;;2.50;99.90;;;;;;5045489;28;20576;-77
2024/01/01 06:01:08;;;;;;;20.03;11.03;;;2.50;99.90;;;;;;5042654;28;20253;-75
2024/01/01 06:03:33;;;;;;;22.02;11.90;;;2.50;99.90;;;;;;5041235;28;20068;-74
2024/01/01 06:05:59;;;;;;;22.63;11.47;;;2.50;99.90;;;;;;5040666;28;20118;-74
2024/01/01 06:08:24;;;;;;;20.98;11.50;;;2.40;99.90;;;;;;5044178;28;20163;-74
2024/01/01 06:10:51;;;;;;;18.40;10.80;;;2.30;99.90;;;;;;5046329;28;20037;-75
2024/01/01 06:13:17;;;;;;;19.70;10.55;;;2.30;99.90;;;;;;5044482;28;20060;-75
2024/01/01 06:15:42;;;;;;;19.80;11.35;;;2.30;99.90;;;;;;5042658;28;20072;-78
2024/01/01 06:18:10;;;;;;;24.67;11.00;;;2.30;99.90;;;;;;5044905;28;20075;-78
2024/01/01 06:20:36;;;;;;;19.98;11.07;;;2.30;99.90;;;;;;5046611;28;20085;-78
2024/01/01 06:23:03;;;;;;;20.55;11.20;;;2.30;99.90;;;;;;5026611;28;20025;-78
2024/01/01 06:25:28;;;;;;;20.17;10.32;;;2.30;99.90;;;;;;5044149;28;20104;-78
2024/01/01 06:27:54;;;;;;;19.37;10.53;;;2.30;99.90;;;;;;5030243;28;20064;-78
2024/01/01 06:30:20;;;;;;;23.77;12.15;;;2.20;99.90;;;;;;5035912;28;20025;-79
2024/01/01 06:32:46;;;;;;;25.17;11.65;;;2.30;99.90;;;;;;5038885;28;20464;-79
2024/01/01 06:35:11;;;;;;;22.27;11.20;;;2.30;99.90;;;;;;5030161;28;20393;-79
2024/01/01 06:37:38;;;;;;;22.33;11.52;;;2.30;99.90;;;;;;5037821;28;20030;-79
2024/01/01 06:40:07;;;;;;;21.30;11.05;;;2.20;99.90;;;;;;5018786;28;20022;-79
2024/01/01 06:42:33;;;;;;;24.15;11.27;;;2.20;99.90;;;;;;5044596;28;20044;-80
2024/01/01 06:45:07;;;;;;;20.98;11.27;;;2.20;99.90;;;;;;5032903;28;20029;-79
2024/01/01 06:47:32;;;;;;;18.13;10.40;;;2.20;99.90;;;;;;5032088;28;20692;-78
2024/01/01 06:49:58;;;;;;;19.13;10.20;;;2.20;99.90;;;;;;5044827;28;20104;-79
2024/01/01 06:52:24;;;;;;;23.08;11.25;;;2.30;99.90;;;;;;5035449;28;20041;-79
2024/01/01 06:54:50;;;;;;;20.02;10.75;;;2.30;99.90;;;;;;5040955;28;20025;-80
2024/01/01 06:57:16;;;;;;;17.17;9.10;;;2.20;99.90;;;;;;5035768;28;20041;-79
2024/01/01 06:59:42;;;;;;;20.45;9.63;;;2.30;99.90;;;;;;5041231;28;20103;-80
2024/01/01 07:02:07;;;;;;;16.65;9.13;;;2.30;99.90;;;;;;5044473;28;20414;-79
2024/01/01 07:04:33;;;;;;;15.13;5.93;;;2.30;99.90;;;;;;5039953;28;20063;-79
2024/01/01 07:07:00;;;;;;;16.40;9.02;;;2.40;99.90;;;;;;5043037;28;20044;-79
2024/01/01 07:09:26;;;;;;;19.73;8.52;;;2.30;99.90;;;;;;5043457;28;20082;-80
2024/01/01 07:11:55;;;;;;;15.83;8.30;;;2.20;99.90;;;;;;5034314;28;20045;-80
2024/01/01 07:14:20;;;;;;;15.43;8.90;;;2.20;99.90;;;;;;5044571;28;20780;-80
2024/01/01 07:16:46;;;;;;;22.17;8.67;;;2.20;99.90;;;;;;5038561;28;20036;-79
2024/01/01 07:19:12;;;;;;;22.23;10.67;;;2.10;99.90;;;;;;5042096;28;20036;-78
2024/01/01 07:21:38;;;;;;;26.83;13.85;;;2.10;99.90;;;;;;5039041;28;20513;-79
2024/01/01 07:24:04;;;;;;;30.05;14.70;;;2.10;99.90;;;;;;5041539;28;20038;-78
2024/01/01 07:26:29;;;;;;;25.95;13.85;;;2.20;99.90;;;;;;5041068;28;20099;-80
2024/01/01 07:28:55;;;;;;;24.27;13.63;;;2.10;99.90;;;;;;5026282;28;20115;-79
2024/01/01 07:31:21;;;;;;;22.37;10.73;;;2.20;99.90;;;;;;5030148;28;20288;-79
2024/01/01 07:33:47;;;;;;;25.83;11.15;;;2.10;99.90;;;;;;5045170;28;20505;-79
2024/01/01 07:36:13;;;;;;;24.00;11.77;;;2.10;99.90;;;;;;5022924;28;20053;-79
2024/01/01 07:38:40;;;;;;;25.07;11.47;;;2.20;99.90;;;;;;5040927;28;20036;-79
2024/01/01 07:41:05;;;;;;;23.05;11.82;;;2.30;99.90;;;;;;5040891;28;20046;-79
2024/01/01 07:43:32;;;;;;;19.45;7.03;;;2.30;99.90;;;;;;5040564;28;20026;-80
2024/01/01 07:45:58;;;;;;;;;;;2.40;99.90;;;;;;5035598;28;20033;-79
2024/01/01 07:48:23;;;;;;;14.45;6.93;;;2.50;99.90;;;;;;5040766;28;19923;-79
2024/01/01 07:50:49;;;;;;;10.13;5.90;;;2.60;99.90;;;;;;5041825;28;20029;-80
2024/01/01 07:53:15;;;;;;;11.65;4.90;;;2.70;99.90;;;;;;5038319;28;20290;-79
2024/01/01 07:55:41;;;;;;;12.45;5.75;;;2.90;99.90;;;;;;5038356;28;20535;-79
2024/01/01 07:58:07;;;;;;;12.55;6.07;;;3.00;99.90;;;;;;5041480;28;20026;-80
2024/01/01 08:00:32;;;;;;;14.17;6.33;;;3.00;99.90;;;;;;5037343;28;20037;-78
2024/01/01 08:02:58;;;;;;;19.30;9.80;;;3.10;99.90;;;;;;5044315;28;20299;-81
2024/01/01 08:05:24;;;;;;;21.17;9.67;;;3.10;99.90;;;;;;5036318;28;20120;-78
2024/01/01 08:07:49;;;;;;;19.37;10.37;;;3.20;99.90;;;;;;5044124;28;20294;-77
2024/01/01 08:10:16;;;;;;;29.57;11.23;;;3.20;99.90;;;;;;5050531;28;20383;-76
2024/01/01 08:12:42;;;;;;;19.30;9.93;;;3.30;99.90;;;;;;5020677;28;20083;-81
2024/01/01 08:15:08;;;;;;;19.52;10.20;;;3.40;99.90;;;;;;5047255;28;20411;-84
2024/01/01 08:17:34;;;;;;;18.80;9.77;;;3.50;99.90;;;;;;5044992;28;20789;-79
2024/01/01 08:20:00;;;;;;;20.23;10.98;;;3.60;99.90;;;;;;5045792;28;20040;-75
2024/01/01 08:22:26;;;;;;;18.52;10.57;;;3.80;99.90;;;;;;5050123;28;20029;-75
2024/01/01 08:24:52;;;;;;;13.35;6.07;;;3.90;99.90;;;;;;5050814;28;20025;-75
2024/01/01 08:27:17;;;;;;;15.70;4.70;;;4.00;99.90;;;;;;5045447;28;20048;-75
2024/01/01 08:29:43;;;;;;;7.43;4.23;;;4.00;99.90;;;;;;5053531;28;20032;-75
2024/01/01 08:32:09;;;;;;;11.27;4.37;;;4.20;99.90;;;;;;5049217;28;20052;-74
2024/01/01 08:34:34;;;;;;;9.33;4.40;;;4.30;99.90;;;;;;5049094;28;20283;-74
2024/01/01 08:37:01;;;;;;;8.80;3.83;;;4.40;99.90;;;;;;5043617;28;20037;-75
2024/01/01 08:39:27;;;;;;;10.88;4.72;;;4.50;99.90;;;;;;5049074;28;20294;-74
2024/01/01 08:41:53;;;;;;;9.93;4.68;;;4.50;99.90;;;;;;5037987;28;20048;-74
2024/01/01 08:44:18;;;;;;;10.68;4.82;;;4.50;99.90;;;;;;5045274;28;20415;-74
2024/01/01 08:46:44;;;;;;;14.13;5.30;;;4.60;99.90;;;;;;5042405;28;20033;-74
2024/01/01 08:49:10;;;;;;;8.30;4.47;;;4.70;99.90;;;;;;5043003;28;20110;-74
2024/01/01 08:51:36;;;;;;;9.20;4.17;;;5.00;99.90;;;;;;5042630;28;20080;-75
2024/01/01 08:54:05;;;;;;;9.40;4.85;;;5.20;99.90;;;;;;5046158;28;20576;-77
2024/01/01 08:56:30;;;;;;;16.33;6.47;;;5.90;99.90;;;;;;5050595;28;20561;-77
2024/01/01 08:58:56;;;;;;;13.27;6.60;;;6.20;99.90;;;;;;5041646;28;20095;-77
2024/01/01 09:01:22;;;;;;;12.37;7.10;;;6.20;99.90;;;;;;5052834;28;20013;-76
2024/01/01 09:03:47;;;;;;;11.33;6.93;;;6.00;99.90;;;;;;5061233;28;20071;-78
2024/01/01 09:06:13;;;;;;;11.98;5.93;;;6.00;99.90;;;;;;5017363;28;20324;-72
2024/01/01 09:08:39;;;;;;;9.90;4.97;;;5.80;99.90;;;;;;5042632;28;20056;-72
2024/01/01 09:11:05;;;;;;;12.77;4.60;;;5.50;99.90;;;;;;5060707;28;20037;-74
2024/01/01 09:13:31;;;;;;;11.45;3.83;;;5.60;99.90;;;;;;5049753;28;20512;-74
2024/01/01 09:15:57;;;;;;;9.07;4.47;;;5.60;99.90;;;;;;5042478;28;20037;-73
2024/01/01 09:18:23;;;;;;;12.05;4.68;;;5.60;99.90;;;;;;5043089;28;20123;-74
2024/01/01 09:20:48;;;;;;;7.33;3.57;;;5.80;99.90;;;;;;5038659;28;20040;-73
2024/01/01 09:23:14;;;;;;;12.53;4.43;;;6.00;99.90;;;;;;5044396;28;20037;-75
2024/01/01 09:25:40;;;;;;;11.53;4.50;;;6.10;99.90;;;;;;5045196;28;20037;-72
2024/01/01 09:28:06;;;;;;;10.45;4.57;;;6.20;99.90;;;;;;5056228;28;20040;-71
2024/01/01 09:30:32;;;;;;;8.25;4.25;;;6.10;99.90;;;;;;5046293;28;20632;-70
2024/01/01 09:32:58;;;;;;;15.68;6.30;;;6.20;99.90;;;;;;5049080;28;20112;-71
2024/01/01 09:35:24;;;;;;;12.52;5.95;;;6.40;99.90;;;;;;5045603;28;20764;-73
2024/01/01 09:37:53;;;;;;;17.40;8.57;;;6.60;99.90;;;;;;5048153;28;20059;-71
2024/01/01 09:40:20;;;;;;;17.77;9.00;;;6.60;99.90;;;;;;5033574;28;20036;-72
2024/01/01 09:42:47;;;;;;;20.08;9.32;;;6.60;99.90;;;;;;5044542;28;20044;-74
2024/01/01 09:45:13;;;;;;;34.47;13.35;;;6.70;99.90;;;;;;5027625;28;20030;-74
2024/01/01 09:47:40;;;;;;;24.53;12.20;;;6.80;99.90;;;;;;5043254;28;20056;-73
2024/01/01 09:50:06;;;;;;;17.33;8.85;;;6.70;99.90;;;;;;5041071;28;20091;-73
2024/01/01 09:52:32;;;;;;;14.00;7.70;;;6.70;99.90;;;;;;5035096;28;20040;-73
2024/01/01 09:54:58;;;;;;;18.33;8.53;;;6.70;99.90;;;;;;5040457;28;20033;-73
2024/01/01 09:57:24;;;;;;;13.38;7.10;;;6.60;99.90;;;;;;5044593;28;20043;-73
2024/01/01 09:59:50;;;;;;;15.67;7.03;;;6.60;99.90;;;;;;5064923;28;20780;-73
2024/01/01 10:02:16;;;;;;;11.73;7.07;;;6.60;99.90;;;;;;5033242;28;20029;-74
2024/01/01 10:04:42;;;;;;;13.57;7.10;;;6.60;99.90;;;;;;5046323;28;20100;-73
2024/01/01 10:07:08;;;;;;;16.67;8.75;;;6.70;99.90;;;;;;5042899;28;20454;-73
2024/01/01 10:09:48;;;;;;;22.17;9.23;;;6.80;99.90;;;;;;5047640;28;20040;-73
2024/01/01 10:12:13;;;;;;;19.67;9.52;;;6.80;99.90;;;;;;5057540;28;20339;-73
2024/01/01 10:14:49;;;;;;;11.17;6.07;;;6.80;99.90;;;;;;5040849;28;20057;-74
2024/01/01 10:17:19;;;;;;;9.73;5.35;;;6.70;99.90;;;;;;5039883;28;20091;-72
2024/01/01 10:19:49;;;;;;;9.98;5.57;;;6.70;99.90;;;;;;5054293;28;20025;-73
2024/01/01 10:22:18;;;;;;;20.15;6.15;;;6.80;99.90;;;;;;5037116;28;20047;-72
2024/01/01 10:24:45;;;;;;;12.50;7.05;;;6.90;99.90;;;;;;5035348;28;20026;-72
2024/01/01 10:27:14;;;;;;;13.65;6.70;;;7.00;99.90;;;;;;5045980;28;20045;-74
2024/01/01 10:29:39;;;;;;;15.52;6.65;;;7.10;99.90;;;;;;5030844;28;20039;-72
2024/01/01 10:32:07;;;;;;;18.07;6.73;;;7.20;99.90;;;;;;5041873;28;20088;-72
2024/01/01 10:34:36;;;;;;;13.85;6.85;;;7.20;99.90;;;;;;5043516;28;20018;-72
2024/01/01 10:37:02;;;;;;;12.55;6.43;;;7.30;99.90;;;;;;5043962;28;20115;-72
2024/01/01 10:39:29;;;;;;;10.63;6.25;;;7.40;99.90;;;;;;5051180;28;20112;-72
2024/01/01 10:41:54;;;;;;;13.43;6.43;;;7.50;99.90;;;;;;5043974;28;20041;-71
2024/01/01 10:44:20;;;;;;;13.57;6.53;;;7.50;99.90;;;;;;5044927;28;20076;-72
2024/01/01 10:46:46;;;;;;;17.20;7.70;;;7.50;99.90;;;;;;5045792;28;20056;-72
2024/01/01 10:49:26;;;;;;;16.65;6.40;;;7.50;99.90;;;;;;5042167;28;20341;-72
2024/01/01 10:52:22;;;;;;;15.70;6.78;;;7.50;99.90;;;;;;5044993;28;20032;-73
2024/01/01 10:55:24;;;;;;;10.80;5.85;;;7.50;99.90;;;;;;5051538;28;20036;-72
2024/01/01 10:58:20;;;;;;;22.80;6.97;;;7.50;99.90;;;;;;5021862;28;20042;-72
2024/01/01 11:01:02;;;;;;;14.10;6.65;;;7.50;99.90;;;;;;5043610;28;20044;-72
2024/01/01 11:03:30;;;;;;;14.40;6.85;;;7.60;99.90;;;;;;5041880;28;20025;-72
2024/01/01 11:05:56;;;;;;;13.38;7.10;;;7.60;99.90;;;;;;5037759;28;20585;-73
2024/01/01 11:08:29;;;;;;;17.88;7.22;;;7.70;99.90;;;;;;5037946;28;20083;-72
2024/01/01 11:10:55;;;;;;;12.77;6.63;;;7.70;99.90;;;;;;5042510;28;20037;-72
2024/01/01 11:13:26;;;;;;;14.43;6.72;;;7.80;99.90;;;;;;5046863;28;20029;-72
2024/01/01 11:16:05;;;;;;;15.82;7.30;;;7.80;99.90;;;;;;5037891;28;20120;-72
2024/01/01 11:18:33;;;;;;;14.38;7.75;;;7.90;99.90;;;;;;5025610;28;20540;-72
2024/01/01 11:21:01;;;;;;;20.13;8.73;;;7.90;99.90;;;;;;5043789;28;20049;-72
2024/01/01 11:23:46;;;;;;;19.77;8.20;;;8.00;99.90;;;;;;5039363;28;20056;-72
2024/01/01 11:26:23;;;;;;;13.02;7.30;;;8.10;99.90;;;;;;5036498;28;20041;-71
2024/01/01 11:28:57;;;;;;;15.65;7.80;;;8.20;99.90;;;;;;5056629;28;20079;-72
2024/01/01 11:31:27;;;;;;;15.10;7.63;;;8.20;99.90;;;;;;5039850;28;20033;-72
2024/01/01 11:34:09;;;;;;;12.98;6.95;;;8.10;99.90;;;;;;5048596;28;20079;-71
2024/01/01 11:36:41;;;;;;;13.80;6.82;;;8.20;99.90;;;;;;5047005;28;20028;-72
2024/01/01 11:39:07;;;;;;;13.55;7.30;;;8.30;99.90;;;;;;5043429;28;20159;-72
2024/01/01 11:41:33;;;;;;;20.25;6.47;;;8.50;99.90;;;;;;5052683;28;20025;-72
2024/01/01 11:44:15;;;;;;;13.48;6.30;;;8.60;99.90;;;;;;5065927;28;20032;-72
2024/01/01 11:46:42;;;;;;;16.42;6.45;;;8.70;99.90;;;;;;5047750;28;20037;-73
2024/01/01 11:49:08;;;;;;;15.05;6.45;;;8.60;99.90;;;;;;5043233;28;20038;-73
2024/01/01 11:51:52;;;;;;;14.25;6.32;;;8.60;99.90;;;;;;5049055;28;20040;-73
2024/01/01 11:54:19;;;;;;;11.85;6.25;;;8.50;99.90;;;;;;5045194;28;20032;-73
2024/01/01 11:56:46;;;;;;;14.18;6.70;;;8.60;99.90;;;;;;5033945;28;20075;-72
2024/01/01 11:59:13;;;;;;;16.38;7.13;;;8.60;99.90;;;;;;5050200;28;20024;-72
2024/01/01 12:01:40;;;;;;;12.05;6.85;;;8.70;99.90;;;;;;5033100;28;20029;-73
2024/01/01 12:04:08;;;;;;;20.17;7.50;;;8.80;99.90;;;;;;5038346;28;20124;-73
2024/01/01 12:06:34;;;;;;;16.92;8.85;;;8.80;99.90;;;;;;5054476;28;20222;-73
2024/01/01 12:09:09;;;;;;;19.48;8.30;;;8.80;99.90;;;;;;5040078;28;20021;-73
2024/01/01 12:11:44;;;;;;;18.80;11.50;;;8.80;99.90;;;;;;5043541;28;20047;-73
2024/01/01 12:14:09;;;;;;;18.83;9.13;;;8.70;99.90;;;;;;5045730;28;20037;-73
2024/01/01 12:16:37;;;;;;;18.90;8.63;;;8.70;99.90;;;;;;5035236;28;20033;-73
2024/01/01 12:19:04;;;;;;;18.83;9.07;;;8.70;99.90;;;;;;5043166;28;20029;-73
2024/01/01 12:21:43;;;;;;;18.42;8.20;;;8.70;99.90;;;;;;5042811;28;20104;-73
2024/01/01 12:24:13;;;;;;;19.08;9.48;;;8.60;99.90;;;;;;5038516;28;20032;-73
2024/01/01 12:26:39;;;;;;;18.63;8.68;;;8.60;99.90;;;;;;5032548;28;20477;-73
2024/01/01 12:29:07;;;;;;;16.20;8.77;;;8.50;99.90;;;;;;5042581;28;20121;-72
2024/01/01 12:31:33;;;;;;;15.55;7.93;;;8.50;99.90;;;;;;5057124;28;20060;-72
2024/01/01 12:33:58;;;;;;;15.83;8.17;;;8.50;99.90;;;;;;5039174;28;20522;-73
2024/01/01 12:36:24;;;;;;;18.13;8.30;;;8.50;99.90;;;;;;5043118;28;20530;-73
2024/01/01 12:38:49;;;;;;;19.40;7.50;;;8.50;99.90;;;;;;5041433;28;20121;-73
2024/01/01 12:41:17;;;;;;;18.33;7.67;;;8.60;99.90;;;;;;5041120;28;20584;-73